Time;durP1;ratioP1;P1;durP2;ratioP2;P2;SDS_P1;SDS_P2;PMS_P1;PMS_P2;Temp;Humidity;BMP_temperature;BMP_pressure;BME280_temperature;BME280_humidity;BME280_pressure;Samples;Min_cycle;Max_cycle;Signal;HPM_P1;HPM_P2
2022/07/20 00:01:44;;;;;;;0.10;0.10;;;;;;;23.67;70.31;99985.03;4933457;28;20217;-63
2022/07/20 00:04:13;;;;;;;0.15;0.15;;;;;;;23.94;65.94;99978.19;4950229;28;20205;-63
2022/07/20 00:06:42;;;;;;;0.10;0.10;;;;;;;24.27;65.66;99995.41;5009844;23;20236;-64
2022/07/20 00:11:57;;;;;;;0.30;0.30;;;;;;;24.06;66.49;99994.69;4967539;28;20209;-63
2022/07/20 00:14:25;;;;;;;0.40;0.40;;;;;;;24.03;66.10;99995.72;4952278;28;20213;-63
2022/07/20 00:16:54;;;;;;;0.20;0.20;;;;;;;24.55;63.25;100010.00;4935153;28;20586;-63
2022/07/20 00:19:22;;;;;;;0.20;0.20;;;;;;;24.12;65.90;99991.66;4946394;28;20229;-63
2022/07/20 00:21:50;;;;;;;0.20;0.20;;;23.30;95.60;;;24.08;66.81;99992.78;4981876;28;20227;-64
2022/07/20 00:24:18;;;;;;;0.10;0.10;;;;;;;23.86;67.56;99991.22;4943857;28;20202;-63
2022/07/20 00:26:47;;;;;;;0.00;0.00;;;;;;;24.23;65.21;100016.28;4961692;28;20221;-64
2022/07/20 00:29:15;;;;;;;0.75;0.75;;;;;;;24.33;65.26;100013.97;4962322;28;20248;-64
2022/07/20 00:31:43;;;;;;;0.63;0.63;;;;;;;24.19;64.54;99991.25;4947175;28;20208;-64
2022/07/20 00:34:11;;;;;;;0.10;0.10;;;;;;;24.35;63.79;99979.63;4963334;28;20217;-66
2022/07/20 00:36:40;;;;;;;0.10;0.10;;;;;;;23.98;66.80;99984.28;4949135;28;20251;-66
2022/07/20 00:39:08;;;;;;;0.20;0.20;;;;;;;23.83;66.12;99963.50;4950167;28;20229;-65
2022/07/20 00:41:36;;;;;;;0.20;0.20;;;;;;;23.97;65.47;99966.34;4953415;28;20220;-65
2022/07/20 00:44:08;;;;;;;0.10;0.10;;;;;;;24.12;63.91;99952.00;4962790;28;20206;-66
2022/07/20 00:46:42;;;;;;;0.43;0.43;;;23.50;97.40;;;23.71;69.46;99974.94;4947110;28;20208;-66
2022/07/20 00:49:12;;;;;;;0.10;0.10;;;23.30;97.30;;;23.47;68.78;99956.34;4980800;28;20600;-65
2022/07/20 00:51:42;;;;;;;0.10;0.10;;;23.10;99.20;;;23.15;71.17;99986.75;4984460;28;20216;-64
2022/07/20 00:54:12;;;;;;;0.10;0.10;;;23.00;98.10;;;23.28;69.04;99986.06;4965096;28;20209;-65
2022/07/20 00:56:40;;;;;;;0.10;0.10;;;;;;;23.28;69.07;99994.16;4948138;28;20229;-65
2022/07/20 00:59:10;;;;;;;0.38;0.38;;;22.90;99.90;;;23.19;73.60;100036.91;4966224;28;20233;-65
2022/07/20 01:01:39;;;;;;;0.00;0.00;;;;;;;22.96;72.03;100019.16;4980592;28;20213;-65
2022/07/20 01:04:08;;;;;;;0.00;0.00;;;22.70;99.90;;;22.95;72.29;100031.75;4948384;28;20209;-65
2022/07/20 01:06:36;;;;;;;0.10;0.10;;;;;;;22.78;71.84;100017.28;4967475;23;20225;-63
2022/07/20 01:09:05;;;;;;;0.20;0.20;;;;;;;22.67;74.09;100055.53;4952911;28;20228;-62
2022/07/20 01:11:35;;;;;;;0.17;0.17;;;22.50;99.90;;;22.60;74.30;100063.03;4933788;28;20209;-62
2022/07/20 01:14:05;;;;;;;0.10;0.10;;;22.40;99.90;;;22.79;71.16;100051.41;4948371;28;20213;-62
2022/07/20 01:16:35;;;;;;;0.10;0.10;;;22.60;99.90;;;22.98;72.86;100090.94;4970183;28;20229;-62
2022/07/20 01:19:05;;;;;;;0.10;0.10;;;22.40;99.90;;;22.61;73.96;100086.34;4950083;28;20229;-62
2022/07/20 01:21:40;;;;;;;0.10;0.10;;;22.30;99.90;;;22.48;77.46;100113.94;4953792;28;20209;-62
2022/07/20 01:24:11;;;;;;;0.30;0.30;;;22.10;99.90;;;22.39;75.28;100098.19;4933580;28;20220;-62
2022/07/20 01:26:43;;;;;;;0.10;0.10;;;22.30;99.90;;;22.65;74.30;100116.72;4962441;28;20568;-62
2022/07/20 01:29:12;;;;;;;0.20;0.20;;;;;;;22.60;72.66;100108.84;4930295;28;20225;-62
2022/07/20 01:31:40;;;;;;;0.15;0.15;;;;;;;22.20;77.98;100134.00;4950679;28;20213;-62
2022/07/20 01:34:26;;;;;;;0.30;0.30;;;;;;;22.23;74.55;100108.75;4970511;28;20197;-62
2022/07/20 01:36:54;;;;;;;0.20;0.20;;;;;;;22.01;77.41;100133.84;4955212;28;20587;-63
2022/07/20 01:39:23;;;;;;;0.20;0.20;;;;;;;21.97;76.34;100136.75;4938277;28;20232;-62
2022/07/20 01:41:53;;;;;;;0.10;0.10;;;;;;;22.32;74.90;100165.81;4938782;28;20213;-62
2022/07/20 01:44:22;;;;;;;0.20;0.20;;;;;;;22.21;76.50;100177.97;4967631;28;20216;-62
2022/07/20 01:46:51;;;;;;;0.30;0.30;;;21.80;99.90;;;22.10;77.44;100194.56;4939446;28;20213;-62
2022/07/20 01:49:20;;;;;;;0.10;0.10;;;;;;;22.02;78.84;100200.28;4954174;28;20231;-62
2022/07/20 01:51:48;;;;;;;0.10;0.10;;;;;;;21.90;78.09;100197.19;4962096;28;20232;-62
2022/07/20 01:54:16;;;;;;;0.10;0.10;;;;;;;21.80;78.48;100194.00;4950878;28;20205;-62
2022/07/20 01:56:45;;;;;;;0.00;0.00;;;;;;;21.68;77.95;100187.28;4953607;28;20248;-62
2022/07/20 01:59:13;;;;;;;0.10;0.10;;;;;;;22.07;74.01;100189.31;4950222;28;20233;-62
2022/07/20 02:01:41;;;;;;;0.10;0.10;;;;;;;21.71;77.28;100191.66;4945861;28;20206;-62
2022/07/20 02:04:10;;;;;;;0.10;0.10;;;;;;;21.84;75.24;100189.34;4931375;28;20229;-62
2022/07/20 02:06:38;;;;;;;0.20;0.20;;;21.60;99.90;;;22.00;76.36;100217.41;4959902;28;20218;-62
2022/07/20 02:12:59;;;;;;;0.70;0.70;;;;;;;21.58;77.29;100198.47;4983356;28;20569;-62
2022/07/20 02:18:15;;;;;;;0.50;0.47;;;;;;;21.92;73.31;100195.28;4953540;28;20220;-62
2022/07/20 02:21:36;;;;;;;0.60;0.60;;;21.40;99.90;;;21.89;73.65;100185.53;4967248;28;20205;-62
2022/07/20 02:24:05;;;;;;;0.63;0.63;;;21.40;99.90;;;21.94;72.71;100174.56;4947608;28;20205;-62
2022/07/20 02:27:38;;;;;;;0.30;0.30;;;21.50;99.90;;;21.93;73.48;100181.78;4962538;28;20210;-62
2022/07/20 02:30:07;;;;;;;0.30;0.30;;;21.50;99.90;;;21.96;73.67;100186.16;4980220;28;20233;-62
2022/07/20 02:32:35;;;;;;;0.30;0.30;;;;;;;22.17;72.15;100188.00;4957314;28;20209;-62
2022/07/20 02:35:04;;;;;;;0.40;0.40;;;;;;;22.35;71.11;100194.44;4967248;28;20205;-62
2022/07/20 02:37:32;;;;;;;0.45;0.45;;;;;;;22.70;69.99;100224.34;4970184;28;20225;-62
2022/07/20 02:40:00;;;;;;;0.45;0.45;;;;;;;23.23;68.70;100260.59;4954494;28;20225;-62
2022/07/20 02:42:29;;;;;;;0.47;0.47;;;;;;;23.05;67.80;100207.50;4969889;28;20213;-62
2022/07/20 02:44:57;;;;;;;0.43;0.43;;;;;;;22.83;68.50;100174.38;4937455;28;20201;-62
2022/07/20 02:47:25;;;;;;;0.40;0.40;;;;;;;22.73;68.88;100154.13;4954020;28;20217;-62
2022/07/20 02:49:53;;;;;;;0.57;0.55;;;;;;;22.41;70.62;100136.69;4952378;28;20239;-62
2022/07/20 02:52:22;;;;;;;1.60;1.50;;;;;;;22.30;71.73;100140.75;4961116;28;20212;-62
2022/07/20 02:54:50;;;;;;;0.40;0.40;;;;;;;22.17;72.09;100134.13;4937717;28;20216;-62
2022/07/20 02:57:18;;;;;;;0.40;0.40;;;;;;;22.12;72.20;100136.16;4936295;28;20696;-62
2022/07/20 02:59:46;;;;;;;0.30;0.30;;;;;;;22.06;72.58;100143.59;4970223;28;20229;-62
2022/07/20 03:02:14;;;;;;;0.40;0.40;;;;;;;22.03;72.74;100134.69;4936496;28;20210;-62
2022/07/20 03:04:42;;;;;;;1.38;1.27;;;;;;;22.02;73.05;100138.34;4959403;28;20750;-62
2022/07/20 03:07:11;;;;;;;0.40;0.40;;;;;;;22.04;72.46;100147.22;4938597;28;20212;-62
2022/07/20 03:09:39;;;;;;;0.60;0.60;;;;;;;21.88;72.95;100135.31;4955349;28;20719;-62
2022/07/20 03:12:08;;;;;;;0.80;0.80;;;21.60;99.90;;;21.84;73.82;100141.78;4968698;28;20352;-62
2022/07/20 03:15:11;;;;;;;0.52;0.50;;;21.50;99.90;;;21.84;73.37;100154.34;4953911;28;20206;-61
2022/07/20 03:17:57;;;;;;;1.00;0.90;;;;;;;21.79;74.33;100159.94;4950816;28;20617;-62
2022/07/20 03:24:45;;;;;;;1.10;0.95;;;;;;;21.56;76.30;100176.16;4971158;28;20203;-62
2022/07/20 03:27:14;;;;;;;0.55;0.55;;;;;;;21.45;76.60;100181.06;4939167;28;20217;-62
2022/07/20 03:29:43;;;;;;;0.40;0.40;;;;;;;21.57;76.14;100205.69;4958412;28;20237;-62
2022/07/20 03:32:11;;;;;;;0.40;0.40;;;;;;;21.22;77.35;100188.22;4949941;28;20677;-62
2022/07/20 03:34:39;;;;;;;0.73;0.70;;;;;;;21.45;76.10;100208.84;4931869;28;20221;-62
2022/07/20 03:37:08;;;;;;;0.43;0.43;;;;;;;21.56;74.37;100211.13;4967014;28;20224;-61
2022/07/20 03:39:36;;;;;;;1.70;1.60;;;;;;;21.57;74.81;100204.81;4950444;28;20233;-62
2022/07/20 03:42:04;;;;;;;0.30;0.30;;;;;;;21.52;76.44;100229.19;4937508;28;20209;-62
2022/07/20 03:44:32;;;;;;;0.50;0.50;;;;;;;21.31;77.70;100222.84;4934530;28;20567;-62
2022/07/20 03:47:01;;;;;;;0.32;0.32;;;;;;;21.11;78.52;100221.81;4963422;28;20205;-62
2022/07/20 03:49:29;;;;;;;0.50;0.50;;;;;;;20.98;79.87;100226.75;4953434;28;20225;-62
2022/07/20 03:51:57;;;;;;;2.40;1.30;;;20.90;99.90;;;21.14;78.82;100252.16;4936058;28;20236;-62
2022/07/20 03:54:26;;;;;;;0.80;0.80;;;;;;;21.20;78.37;100268.06;4968300;28;20216;-62
2022/07/20 03:56:54;;;;;;;0.40;0.40;;;;;;;21.19;77.96;100270.81;4968870;28;20213;-62
2022/07/20 03:59:22;;;;;;;0.40;0.40;;;;;;;21.12;78.18;100270.16;4937043;28;20252;-62
2022/07/20 04:01:51;;;;;;;0.20;0.20;;;;;;;21.14;77.43;100264.72;4933418;28;20232;-62
2022/07/20 04:04:19;;;;;;;0.73;0.73;;;;;;;21.19;77.01;100279.75;4951006;28;20213;-62
2022/07/20 04:06:47;;;;;;;0.20;0.20;;;;;;;21.14;77.88;100289.78;4976143;28;20209;-62
2022/07/20 04:09:43;;;;;;;0.20;0.20;;;;;;;21.16;77.28;100278.97;4936089;28;20233;-62
2022/07/20 04:12:04;;;;;;;0.20;0.20;;;23.90;99.90;;;21.08;79.12;100292.72;4954487;28;20232;-66
2022/07/20 04:14:34;;;;;;;0.20;0.20;;;20.90;99.90;;;21.20;76.41;100286.00;4936828;28;20217;-62
2022/07/20 04:17:02;;;;;;;0.40;0.40;;;;;;;21.13;81.25;100335.56;4967234;28;20228;-62
2022/07/20 04:19:31;;;;;;;0.10;0.10;;;;;;;20.80;82.06;100325.03;4972862;28;20229;-61
2022/07/20 04:21:59;;;;;;;0.25;0.25;;;;;;;20.98;79.42;100316.38;4944207;28;20213;-61
2022/07/20 04:24:27;;;;;;;0.20;0.20;;;;;;;20.98;83.48;100369.25;4950825;28;20217;-61
2022/07/20 04:26:56;;;;;;;0.10;0.10;;;;;;;20.61;85.57;100366.91;4937020;28;20458;-60
2022/07/20 04:29:24;;;;;;;0.10;0.10;;;;;;;20.71;85.35;100387.16;4936525;28;20255;-60
2022/07/20 04:31:52;;;;;;;0.10;0.10;;;;;;;20.97;84.40;100414.06;4967477;28;20209;-60
2022/07/20 04:34:20;;;;;;;0.85;0.85;;;20.10;99.90;;;21.05;82.25;100403.94;4956232;28;20215;-61
2022/07/20 04:36:49;;;;;;;0.30;0.30;;;;;;;21.18;80.83;100406.19;4939537;28;20228;-61
2022/07/20 04:39:17;;;;;;;0.20;0.20;;;;;;;21.25;81.01;100415.84;4949912;28;20233;-61
2022/07/20 04:41:45;;;;;;;0.20;0.20;;;;;;;21.34;81.04;100440.59;4986084;28;20217;-61
2022/07/20 04:44:13;;;;;;;0.20;0.20;;;;;;;21.45;84.97;100477.91;4955068;28;20219;-61
2022/07/20 04:46:42;;;;;;;0.40;0.40;;;;;;;21.52;83.56;100487.50;4944936;28;20210;-61
2022/07/20 04:49:10;;;;;;;0.45;0.45;;;;;;;21.62;89.73;100552.66;4955277;28;20239;-61
2022/07/20 04:51:39;;;;;;;0.40;0.40;;;;;;;21.87;80.75;100505.09;4969156;28;20217;-61
2022/07/20 04:54:07;;;;;;;0.60;0.60;;;20.70;99.90;;;21.99;85.84;100557.63;4954853;28;20231;-61
2022/07/20 04:56:35;;;;;;;1.15;1.00;;;;;;;22.14;77.88;100491.63;4939257;28;20205;-62
2022/07/20 04:59:04;;;;;;;1.35;1.08;;;;;;;22.22;80.58;100501.16;4973628;28;20237;-61
2022/07/20 05:01:32;;;;;;;0.90;0.80;;;;;;;22.29;81.03;100504.50;4955492;28;20212;-61
2022/07/20 05:04:01;;;;;;;2.22;1.70;;;;;;;22.49;75.73;100463.31;4971302;28;20217;-61
2022/07/20 05:06:29;;;;;;;3.40;2.17;;;;;;;22.33;75.48;100428.88;4950232;28;20214;-61
2022/07/20 05:08:57;;;;;;;2.30;1.50;;;;;;;22.13;78.47;100430.59;4966743;28;20255;-62
2022/07/20 05:11:29;;;;;;;2.78;1.60;;;;;;;22.28;76.69;100433.56;4970953;28;20237;-62
2022/07/20 05:13:58;;;;;;;1.55;1.20;;;;;;;22.22;76.82;100420.34;4957078;28;20537;-62
2022/07/20 05:16:26;;;;;;;1.23;0.93;;;;;;;22.41;75.75;100425.00;4954216;28;20228;-62
2022/07/20 05:18:56;;;;;;;2.50;1.80;;;;;;;22.68;74.20;100424.78;4938726;29;20230;-62
2022/07/20 05:21:24;;;;;;;2.50;1.58;;;;;;;22.82;74.68;100431.44;4967368;28;20205;-62
2022/07/20 05:23:52;;;;;;;1.08;0.88;;;;;;;22.96;73.43;100416.44;4975469;28;20209;-62
2022/07/20 05:26:21;;;;;;;3.10;1.65;;;;;;;23.05;74.17;100431.38;4967493;28;20228;-62
2022/07/20 05:28:49;;;;;;;1.88;1.13;;;;;;;23.23;72.79;100435.09;4955249;28;20239;-63
2022/07/20 05:31:18;;;;;;;1.13;0.80;;;;;;;23.42;73.06;100437.91;4953290;28;20615;-63
2022/07/20 05:33:46;;;;;;;0.95;0.82;;;;;;;23.32;73.00;100421.19;4955770;28;20221;-63
2022/07/20 05:36:14;;;;;;;0.28;0.28;;;21.80;99.90;;;23.35;74.86;100437.25;4937368;28;20209;-63
2022/07/20 05:38:42;;;;;;;0.10;0.10;;;22.70;99.90;;;23.53;73.10;100441.00;4964183;28;20260;-60
2022/07/20 05:41:11;;;;;;;0.10;0.10;;;22.90;99.90;;;23.74;72.34;100448.19;4954786;28;20232;-61
2022/07/20 05:43:39;;;;;;;0.10;0.10;;;;;;;23.77;71.94;100437.25;4959002;28;20213;-60
2022/07/20 05:46:07;;;;;;;0.00;0.00;;;;;;;23.98;72.19;100459.69;4971073;28;20220;-62
2022/07/20 05:48:36;;;;;;;0.50;0.50;;;;;;;24.08;72.30;100454.75;4955095;28;20220;-61
2022/07/20 05:51:04;;;;;;;0.10;0.10;;;23.20;99.90;;;24.25;72.57;100463.81;4952255;28;20216;-61
2022/07/20 05:53:32;;;;;;;0.32;0.32;;;23.20;99.90;;;24.29;73.19;100458.31;4952115;28;20217;-62
2022/07/20 05:56:00;;;;;;;0.10;0.10;;;;;;;24.45;71.41;100446.69;4954938;28;20209;-62
2022/07/20 05:58:30;;;;;;;0.22;0.22;;;23.10;99.90;;;24.50;69.42;100412.19;4937076;28;20237;-62
2022/07/20 06:00:59;;;;;;;0.10;0.10;;;;;;;24.51;71.02;100410.38;4943419;28;20217;-62
2022/07/20 06:03:27;;;;;;;0.05;0.05;;;;;;;24.66;68.57;100392.50;4942272;28;20209;-62
2022/07/20 06:05:55;;;;;;;0.10;0.10;;;;;;;24.77;70.30;100415.41;4975631;23;20236;-79
2022/07/20 06:08:24;;;;;;;0.00;0.00;;;23.90;99.90;;;24.91;68.57;100387.66;5009739;28;20216;-77
2022/07/20 06:10:52;;;;;;;0.00;0.00;;;;;;;24.96;68.23;100382.88;4995399;28;20216;-78
2022/07/20 06:13:20;;;;;;;0.00;0.00;;;;;;;25.04;68.96;100386.09;4994972;28;20219;-80
2022/07/20 06:15:49;;;;;;;0.17;0.17;;;;;;;25.26;69.05;100393.97;4993511;28;20235;-80
2022/07/20 06:18:17;;;;;;;0.08;0.08;;;;;;;25.29;67.46;100366.75;4993693;28;20243;-80
2022/07/20 06:20:49;;;;;;;0.32;0.32;;;;;;;25.33;69.31;100379.16;4989192;28;20212;-79
2022/07/20 06:23:18;;;;;;;0.00;0.00;;;;;;;25.44;67.14;100365.94;4993290;28;20204;-79
2022/07/20 06:25:46;;;;;;;0.00;0.00;;;;;;;25.59;66.90;100360.66;4986966;28;20224;-80
2022/07/20 06:28:15;;;;;;;0.08;0.08;;;;;;;25.53;67.60;100341.06;4989503;28;20204;-80
2022/07/20 06:30:43;;;;;;;0.00;0.00;;;;;;;25.53;68.19;100343.78;4991084;28;20223;-80
2022/07/20 06:33:11;;;;;;;0.00;0.00;;;;;;;25.67;67.84;100353.03;4991110;28;20693;-81
2022/07/20 06:35:40;;;;;;;0.00;0.00;;;;;;;25.86;67.34;100353.75;4984756;28;20224;-81
2022/07/20 06:38:08;;;;;;;0.57;0.57;;;;;;;25.87;68.72;100379.03;4992753;28;20693;-80
2022/07/20 06:40:36;;;;;;;0.00;0.00;;;;;;;26.10;66.47;100356.97;4988262;28;20688;-80
2022/07/20 06:43:08;;;;;;;0.10;0.10;;;;;;;26.16;67.06;100370.16;4990828;28;20222;-81
2022/07/20 06:45:36;;;;;;;0.13;0.13;;;;;;;26.38;67.42;100367.16;4988842;28;20220;-81
2022/07/20 06:48:04;;;;;;;0.10;0.10;;;25.50;99.90;;;26.52;67.85;100372.66;4983275;28;20200;-80
2022/07/20 06:50:32;;;;;;;0.75;0.68;;;;;;;26.54;67.30;100365.31;4982189;28;20200;-81
2022/07/20 06:53:01;;;;;;;0.00;0.00;;;;;;;26.54;67.05;100349.03;4992044;28;20204;-81
2022/07/20 06:55:29;;;;;;;0.10;0.10;;;;;;;26.81;65.97;100338.38;4990003;28;20243;-81
2022/07/20 06:57:57;;;;;;;0.00;0.00;;;;;;;26.85;65.72;100326.38;4989976;28;20238;-82
2022/07/20 07:00:26;;;;;;;0.00;0.00;;;;;;;27.16;67.46;100368.00;4995421;28;20216;-82
2022/07/20 07:02:54;;;;;;;0.10;0.10;;;;;;;27.14;65.47;100329.19;4987629;28;20205;-81
2022/07/20 07:05:22;;;;;;;0.00;0.00;;;26.60;99.90;;;27.16;65.75;100325.44;4991614;28;20243;-82
2022/07/20 07:07:51;;;;;;;0.00;0.00;;;;;;;27.27;65.82;100335.63;4995576;28;20204;-81
2022/07/20 07:10:19;;;;;;;0.00;0.00;;;;;;;27.12;65.90;100298.56;4993332;28;20215;-81
2022/07/20 07:12:47;;;;;;;0.00;0.00;;;;;;;27.42;65.80;100319.28;4979186;28;20216;-82
2022/07/20 07:15:15;;;;;;;0.00;0.00;;;;;;;27.85;64.36;100337.47;4983207;28;20238;-81
2022/07/20 07:17:44;;;;;;;0.98;0.95;;;;;;;27.98;63.75;100303.09;4993953;28;20653;-81
2022/07/20 07:20:12;;;;;;;0.30;0.30;;;;;;;27.86;64.85;100296.59;4995289;28;20656;-81
2022/07/20 07:22:42;;;;;;;0.85;0.52;;;;;;;28.02;65.32;100310.94;4995473;28;20207;-82
2022/07/20 07:25:10;;;;;;;0.00;0.00;;;;;;;28.10;63.86;100290.53;4978379;28;20235;-81
2022/07/20 07:27:38;;;;;;;0.03;0.03;;;27.70;99.90;;;28.25;65.62;100308.59;4992848;28;20219;-81
2022/07/20 07:30:07;;;;;;;0.00;0.00;;;;;;;28.51;64.36;100301.41;4985917;28;20215;-81
2022/07/20 07:32:35;;;;;;;0.00;0.00;;;;;;;28.41;63.67;100251.31;4992569;28;20208;-81
2022/07/20 07:35:03;;;;;;;0.10;0.10;;;28.20;99.90;;;28.56;63.75;100266.59;5000063;28;20234;-79
2022/07/20 07:37:40;;;;;;;0.00;0.00;;;28.40;99.90;;;28.63;62.72;100243.47;5006575;28;20207;-79
2022/07/20 07:40:09;;;;;;;0.00;0.00;;;;;;;28.66;62.50;100225.06;5001009;28;20211;-79
2022/07/20 07:42:37;;;;;;;0.00;0.00;;;28.40;99.90;;;28.64;62.88;100202.53;5007032;28;20201;-79
2022/07/20 07:45:07;;;;;;;0.05;0.05;;;;;;;28.68;63.21;100204.06;4998439;28;20223;-78
2022/07/20 07:47:37;;;;;;;0.00;0.00;;;29.00;99.90;;;28.93;62.85;100211.41;5010970;28;20224;-79
2022/07/20 07:50:06;;;;;;;0.00;0.00;;;28.90;99.90;;;29.10;62.35;100206.63;5000843;28;20207;-78
2022/07/20 07:52:34;;;;;;;0.00;0.00;;;;;;;29.43;61.54;100219.69;4991892;28;20207;-79
2022/07/20 07:55:02;;;;;;;0.00;0.00;;;29.30;99.90;;;29.67;61.61;100217.03;4980881;28;20224;-79
2022/07/20 07:57:30;;;;;;;0.00;0.00;;;29.50;99.90;;;29.58;61.89;100172.25;4985610;28;20213;-79
2022/07/20 07:59:58;;;;;;;0.00;0.00;;;29.60;99.90;;;29.68;62.60;100186.94;4993459;28;20220;-79
2022/07/20 08:02:26;;;;;;;0.00;0.00;;;29.80;99.90;;;29.79;61.72;100178.84;4986888;28;20214;-79
2022/07/20 08:04:55;;;;;;;0.00;0.00;;;30.50;99.90;;;30.16;61.50;100211.56;4976551;28;20236;-78
2022/07/20 08:07:23;;;;;;;0.00;0.00;;;30.50;99.90;;;29.83;61.50;100144.91;4988534;28;20212;-78
2022/07/20 08:09:51;;;;;;;0.00;0.00;;;30.70;99.90;;;30.05;61.89;100178.78;4991685;28;20215;-78
2022/07/20 08:12:20;;;;;;;0.00;0.00;;;31.00;99.90;;;30.73;61.05;100211.69;4990788;28;20216;-78
2022/07/20 08:14:49;;;;;;;0.00;0.00;;;;;;;31.16;59.82;100197.41;4972662;28;20228;-79
2022/07/20 08:17:19;;;;;;;0.00;0.00;;;31.80;99.90;;;31.23;60.03;100179.56;4991683;28;20208;-78
2022/07/20 08:19:47;;;;;;;0.00;0.00;;;;;;;31.57;59.08;100185.88;4987079;28;20239;-78
2022/07/20 08:22:15;;;;;;;0.00;0.00;;;;;;;31.13;60.09;100107.47;4989722;28;20580;-78
2022/07/20 08:24:44;;;;;;;0.00;0.00;;;;;;;32.10;60.00;100175.06;4977069;28;20240;-79
2022/07/20 08:27:12;;;;;;;0.03;0.03;;;32.70;98.10;;;31.64;60.41;100102.34;4994173;28;20230;-79
2022/07/20 08:29:40;;;;;;;0.00;0.00;;;32.30;96.60;;;31.74;58.97;100084.22;4987967;28;20576;-79
2022/07/20 08:32:08;;;;;;;0.00;0.00;;;;;;;32.01;59.64;100111.06;4989419;28;20573;-79
2022/07/20 08:34:36;;;;;;;0.00;0.00;;;33.20;97.60;;;32.68;59.52;100164.66;4993972;28;20211;-79
2022/07/20 08:37:04;;;;;;;0.00;0.00;;;32.50;94.90;;;32.01;58.61;100034.47;4989026;28;20287;-79
2022/07/20 08:39:33;;;;;;;0.00;0.00;;;;;;;32.10;57.63;100030.09;5001853;28;20315;-79
2022/07/20 08:42:10;;;;;;;0.00;0.00;;;32.40;93.80;;;31.98;56.94;99992.84;5003135;28;20196;-79
2022/07/20 08:44:43;;;;;;;0.10;0.10;;;32.60;94.50;;;32.43;57.94;100042.72;4993260;28;20216;-79
2022/07/20 08:47:12;;;;;;;0.00;0.00;;;33.20;94.90;;;33.22;57.22;100093.16;4990893;28;20214;-79
2022/07/20 08:49:49;;;;;;;0.30;0.30;;;33.30;93.90;;;32.96;56.88;100039.84;4985376;28;20228;-79
2022/07/20 08:52:19;;;;;;;0.00;0.00;;;;;;;33.14;57.83;100062.84;4988133;28;20207;-80
2022/07/20 08:54:47;;;;;;;0.15;0.15;;;;;;;32.98;57.87;100025.00;4984748;28;20232;-80
2022/07/20 08:57:17;;;;;;;0.00;0.00;;;33.50;91.00;;;32.57;55.16;99912.84;4980624;28;20666;-80
2022/07/20 08:59:46;;;;;;;0.00;0.00;;;33.70;91.40;;;33.02;55.45;99966.19;4976356;28;20212;-80
2022/07/20 09:02:16;;;;;;;0.75;0.75;;;;;;;33.40;57.17;100030.31;4983329;28;20672;-79
2022/07/20 09:04:59;;;;;;;0.52;0.52;;;34.00;91.20;;;33.65;56.23;100038.00;4990181;28;20569;-81
2022/07/20 09:07:49;;;;;;;0.00;0.00;;;34.20;90.60;;;33.12;56.17;99943.41;4990512;28;20207;-80
2022/07/20 09:10:24;;;;;;;0.00;0.00;;;34.90;91.20;;;33.81;55.71;100006.38;4994834;28;20235;-80
2022/07/20 09:13:02;;;;;;;0.00;0.00;;;34.70;90.10;;;33.90;54.76;99987.25;5002105;28;20211;-78
2022/07/20 09:15:37;;;;;;;0.00;0.00;;;35.40;90.20;;;34.02;55.56;99974.22;4987283;28;20235;-79
2022/07/20 09:18:21;;;;;;;0.28;0.28;;;35.50;88.10;;;34.07;53.85;99908.78;4994106;28;20216;-77
2022/07/20 09:20:55;;;;;;;0.10;0.10;;;35.10;86.90;;;34.10;54.95;99935.94;4995049;28;20208;-77
2022/07/20 09:23:30;;;;;;;0.00;0.00;;;;;;;34.19;56.06;99967.97;4996642;28;20215;-77
2022/07/20 09:26:03;;;;;;;0.00;0.00;;;35.00;88.10;;;34.02;56.38;99941.31;4985633;28;20228;-77
2022/07/20 09:28:35;;;;;;;0.10;0.10;;;35.50;88.70;;;34.68;55.96;99985.16;4989291;28;20208;-78
2022/07/20 09:31:19;;;;;;;0.55;0.55;;;35.70;88.90;;;34.79;56.37;99989.59;4993747;28;20236;-78
2022/07/20 09:34:08;;;;;;;0.00;0.00;;;35.70;87.50;;;34.36;56.61;99929.81;4975775;28;20216;-77
2022/07/20 09:36:41;;;;;;;0.00;0.00;;;35.60;88.10;;;34.62;57.07;99961.06;4984667;28;20244;-79
2022/07/20 09:39:18;;;;;;;0.20;0.20;;;35.90;85.50;;;34.84;55.86;99954.31;4980028;28;20708;-79
2022/07/20 09:41:56;;;;;;;0.20;0.10;;;36.10;87.90;;;34.94;57.75;99990.84;4990919;28;20204;-79
2022/07/20 09:44:28;;;;;;;0.20;0.20;;;36.10;84.60;;;34.53;56.75;99916.16;4984147;28;20207;-80
2022/07/20 09:46:57;;;;;;;0.38;0.38;;;;;;;34.89;56.44;99946.47;4999616;28;20210;-80
2022/07/20 09:49:37;;;;;;;0.00;0.00;;;35.70;83.60;;;34.66;55.72;99888.31;4983859;28;20227;-82
2022/07/20 09:52:08;;;;;;;0.00;0.00;;;;;;;35.11;56.64;99950.69;4977150;28;20698;-79
2022/07/20 09:54:56;;;;;;;0.00;0.00;;;;;;;34.56;56.89;99873.78;4992205;28;20238;-78
2022/07/20 09:57:24;;;;;;;0.10;0.10;;;;;;;35.19;57.49;99946.16;4991764;28;20205;-80
2022/07/20 09:59:55;;;;;;;0.82;0.82;;;36.20;85.00;;;35.38;55.96;99941.56;4985986;28;20209;-81
2022/07/20 10:02:25;;;;;;;0.10;0.10;;;36.50;82.60;;;35.26;54.20;99869.44;4965758;28;20235;-81
2022/07/20 10:07:53;;;;;;;0.03;0.03;;;35.20;81.80;;;34.27;55.15;99783.34;4993820;28;20582;-62
2022/07/20 10:10:22;;;;;;;0.00;0.00;;;;;;;34.94;56.08;99859.81;4975866;28;20228;-62
2022/07/20 10:12:50;;;;;;;0.00;0.00;;;;;;;34.96;55.34;99832.19;4960468;28;20227;-62
2022/07/20 10:15:33;;;;;;;0.10;0.10;;;36.00;81.70;;;34.91;55.18;99813.44;4986988;28;20682;-62
2022/07/20 10:18:06;;;;;;;1.70;0.47;;;;;;;35.24;56.46;99874.22;4989361;28;20226;-62
2022/07/20 10:20:36;;;;;;;0.00;0.00;;;35.80;82.70;;;35.13;55.91;99860.72;4957514;28;20208;-62
2022/07/20 10:23:25;;;;;;;0.25;0.15;;;36.20;84.70;;;36.02;56.41;99949.53;4980868;28;20204;-62
2022/07/20 10:25:54;;;;;;;0.00;0.00;;;;;;;35.43;55.28;99830.09;4975552;28;20210;-62
2022/07/20 10:28:37;;;;;;;0.20;0.20;;;37.10;81.20;;;35.40;54.20;99802.91;4960929;28;20236;-63
2022/07/20 10:31:10;;;;;;;0.00;0.00;;;38.10;81.70;;;35.93;54.26;99865.19;4975065;28;20231;-62
2022/07/20 10:33:39;;;;;;;0.00;0.00;;;;;;;34.90;54.87;99739.41;4947116;28;20211;-62
2022/07/20 10:38:57;;;;;;;2.20;1.55;;;;;;;36.09;53.71;99829.50;4991980;28;20231;-63
2022/07/20 10:41:36;;;;;;;0.22;0.22;;;;;;;37.20;53.70;99920.34;4972904;28;20208;-63
2022/07/20 10:44:22;;;;;;;0.60;0.60;;;39.00;80.80;;;37.21;53.58;99815.41;4971120;28;20204;-64
2022/07/20 10:46:52;;;;;;;0.63;0.63;;;;;;;36.85;54.82;99812.97;4992647;28;20694;-63
2022/07/20 10:49:59;;;;;;;0.20;0.20;;;37.80;74.50;;;35.01;55.77;99719.06;4997875;28;20239;-63
2022/07/20 10:52:31;;;;;;;0.30;0.30;;;37.50;76.80;;;36.53;54.02;99835.75;4994507;28;20207;-63
2022/07/20 10:55:00;;;;;;;0.40;0.40;;;;;;;36.06;53.96;99785.78;4959964;28;20211;-63
2022/07/20 10:57:28;;;;;;;0.10;0.10;;;;;;;36.50;54.20;99829.72;4995297;28;20216;-63
2022/07/20 11:00:09;;;;;;;0.17;0.17;;;37.40;77.40;;;37.21;54.42;99883.47;4980311;28;20232;-63
2022/07/20 11:02:37;;;;;;;0.40;0.40;;;;;;;37.70;53.65;99884.38;4964896;28;20199;-63
2022/07/20 11:05:12;;;;;;;0.50;0.50;;;;;;;37.44;53.99;99840.41;4965297;28;20200;-63
2022/07/20 11:07:40;;;;;;;0.80;0.80;;;;;;;37.56;54.08;99849.19;4977592;28;20325;-63
2022/07/20 11:10:27;;;;;;;0.60;0.60;;;39.40;75.80;;;37.99;53.72;99870.91;4961667;28;20722;-63
2022/07/20 11:12:58;;;;;;;1.73;1.42;;;39.40;71.80;;;37.73;52.37;99815.94;4977915;28;20196;-63
2022/07/20 11:15:51;;;;;;;3.13;2.00;;;40.00;74.00;;;37.82;52.08;99761.59;4998682;28;20615;-63
2022/07/20 11:18:26;;;;;;;2.33;1.38;;;40.80;75.10;;;39.61;51.42;99869.25;4980003;28;20228;-63
2022/07/20 11:21:07;;;;;;;0.70;0.70;;;40.80;70.50;;;37.93;54.23;99728.06;4968775;28;20207;-63
2022/07/20 11:23:49;;;;;;;1.00;0.80;;;40.30;71.80;;;38.01;53.09;99761.16;4980050;28;20215;-63
2022/07/20 11:26:20;;;;;;;4.10;2.58;;;40.40;70.80;;;38.33;53.01;99782.28;4977662;28;20215;-62
2022/07/20 11:28:55;;;;;;;2.53;1.45;;;40.50;72.40;;;39.19;53.57;99852.28;4982025;28;20227;-62
2022/07/20 11:31:28;;;;;;;5.07;2.15;;;41.40;73.50;;;39.89;53.56;99876.94;4995486;28;20223;-62
2022/07/20 11:33:59;;;;;;;3.47;2.25;;;41.20;70.90;;;39.33;52.89;99787.84;4964739;28;20215;-62
2022/07/20 11:36:31;;;;;;;5.13;2.58;;;41.20;70.70;;;39.00;53.97;99757.66;4995284;28;20215;-62